Time;durP1;ratioP1;P1;durP2;ratioP2;P2;SDS_P1;SDS_P2;PMS_P1;PMS_P2;Temp;Humidity;BMP_temperature;BMP_pressure;BME280_temperature;BME280_humidity;BME280_pressure;Samples;Min_cycle;Max_cycle;Signal;HPM_P1;HPM_P2
2023/07/07 00:01:04;;;;;;;5.07;4.68;;;14.80;99.90;;;15.73;72.06;98180.50;10350143;28;20230;-65
2023/07/07 00:06:09;;;;;;;5.13;4.68;;;14.70;99.90;;;15.64;72.63;98186.13;10357973;28;20594;-66
2023/07/07 00:11:12;;;;;;;5.88;4.88;;;14.60;99.90;;;15.52;74.32;98185.59;10360581;28;20230;-64
2023/07/07 00:16:15;;;;;;;6.45;5.43;;;14.50;99.90;;;15.60;73.23;98179.09;10365238;28;20230;-65
2023/07/07 00:21:24;;;;;;;6.85;5.50;;;14.50;99.90;;;15.36;74.51;98171.16;10362436;28;20242;-65
2023/07/07 00:26:27;;;;;;;6.45;5.85;;;14.40;99.90;;;15.17;75.85;98177.22;10363963;28;20254;-64
2023/07/07 00:31:30;;;;;;;5.65;5.15;;;14.30;99.90;;;15.04;74.89;98180.06;10362792;28;20237;-65
2023/07/07 00:36:35;;;;;;;5.85;5.18;;;14.10;99.90;;;15.10;75.01;98186.34;10363788;28;20227;-65
2023/07/07 00:41:39;;;;;;;5.47;4.70;;;14.20;99.90;;;15.04;75.48;98180.94;10363239;28;20337;-65
2023/07/07 00:46:42;;;;;;;5.68;5.07;;;14.10;99.90;;;15.05;75.18;98186.97;10357547;28;20258;-65
2023/07/07 00:51:52;;;;;;;6.15;4.78;;;14.10;99.90;;;14.82;76.00;98183.34;10364079;28;20504;-65
2023/07/07 00:56:56;;;;;;;6.10;5.32;;;13.90;99.90;;;14.81;77.00;98190.19;10358286;28;20261;-65
2023/07/07 01:02:04;;;;;;;6.45;5.82;;;13.90;99.90;;;14.78;76.80;98177.19;10361257;28;20230;-65
2023/07/07 01:07:17;;;;;;;5.43;4.90;;;13.80;99.90;;;14.80;77.23;98185.88;10363525;28;20234;-65
2023/07/07 01:12:20;;;;;;;6.43;5.78;;;13.90;99.90;;;14.74;77.25;98180.44;10361919;28;21082;-65
2023/07/07 01:17:37;;;;;;;7.43;6.15;;;13.80;99.90;;;14.70;77.03;98186.25;10353885;28;20238;-65
2023/07/07 01:23:08;;;;;;;7.68;6.60;;;13.70;99.90;;;14.65;77.40;98195.47;10356709;28;20225;-65
2023/07/07 01:28:37;;;;;;;6.53;5.88;;;13.70;99.90;;;14.49;78.06;98192.97;10361426;28;20690;-65
2023/07/07 01:33:43;;;;;;;6.15;5.55;;;13.60;99.90;;;14.49;78.58;98190.38;10363354;28;20234;-65
2023/07/07 01:38:48;;;;;;;6.03;5.05;;;13.50;99.90;;;14.51;78.59;98188.78;10362051;28;20230;-65
2023/07/07 01:44:00;;;;;;;6.13;5.43;;;13.50;99.90;;;14.41;79.25;98188.31;10361836;28;20334;-66
2023/07/07 01:49:12;;;;;;;8.95;6.30;;;13.50;99.90;;;14.27;80.06;98199.63;10361278;28;20226;-64
2023/07/07 01:54:17;;;;;;;7.30;6.40;;;13.30;99.90;;;14.24;79.35;98196.91;10361218;28;20726;-65
2023/07/07 01:59:20;;;;;;;6.32;5.65;;;13.30;99.90;;;14.13;79.76;98192.94;10356905;28;20601;-65
2023/07/07 02:04:25;;;;;;;6.78;6.13;;;13.20;99.90;;;14.08;80.64;98195.31;10360290;28;20264;-65
2023/07/07 02:09:28;;;;;;;7.43;6.68;;;13.10;99.90;;;13.85;81.01;98190.72;10358472;28;20245;-64
2023/07/07 02:14:31;;;;;;;8.35;7.15;;;12.90;99.90;;;13.79;81.94;98191.28;10361383;28;20226;-65
2023/07/07 02:19:35;;;;;;;8.98;8.18;;;12.90;99.90;;;13.92;81.08;98190.22;10360193;28;20242;-65
2023/07/07 02:24:39;;;;;;;5.68;5.18;;;12.90;99.90;;;13.90;80.93;98178.97;10358803;28;20302;-65
2023/07/07 02:29:42;;;;;;;5.63;5.13;;;12.90;99.90;;;13.77;79.93;98190.34;10356146;28;20702;-66
2023/07/07 02:34:48;;;;;;;5.80;5.30;;;12.80;99.90;;;13.57;81.31;98179.06;10360345;28;20234;-64
2023/07/07 02:39:51;;;;;;;5.95;5.40;;;12.70;99.90;;;13.67;81.11;98180.41;10357453;28;20313;-64
2023/07/07 02:44:54;;;;;;;7.45;5.50;;;12.70;99.90;;;13.64;81.17;98180.25;10355979;28;20330;-65
2023/07/07 02:49:59;;;;;;;5.82;5.25;;;12.70;99.90;;;13.49;82.09;98181.25;10359082;28;20234;-64
2023/07/07 02:55:02;;;;;;;6.05;5.45;;;12.60;99.90;;;13.61;82.52;98180.09;10357227;28;20222;-64
2023/07/07 03:00:09;;;;;;;6.10;4.78;;;12.60;99.90;;;13.49;83.17;98180.38;10355558;28;20234;-65
2023/07/07 03:05:13;;;;;;;5.35;4.90;;;12.50;99.90;;;13.48;82.13;98174.38;10360362;28;20226;-65
2023/07/07 03:10:16;;;;;;;5.63;5.15;;;12.50;99.90;;;13.41;82.88;98177.41;10355739;28;20239;-64
2023/07/07 03:15:20;;;;;;;6.22;5.70;;;12.50;99.90;;;13.41;82.67;98181.66;10358737;28;20222;-66
2023/07/07 03:20:26;;;;;;;5.75;5.20;;;12.50;99.90;;;13.47;81.66;98198.25;10353639;28;20602;-65
2023/07/07 03:25:31;;;;;;;5.35;4.85;;;12.40;99.90;;;13.37;81.73;98196.03;10358240;28;20338;-64
2023/07/07 03:30:35;;;;;;;6.45;5.95;;;12.40;99.90;;;13.32;82.52;98199.16;10357968;28;20218;-65
2023/07/07 03:35:39;;;;;;;6.20;5.60;;;12.40;99.90;;;13.26;82.60;98203.19;10353824;28;20225;-65
2023/07/07 03:40:48;;;;;;;5.85;5.35;;;12.40;99.90;;;13.35;82.55;98207.91;10358537;28;20885;-65
2023/07/07 03:45:57;;;;;;;5.47;4.97;;;12.40;99.90;;;13.32;81.96;98207.75;10365860;28;20230;-65
2023/07/07 03:51:03;;;;;;;5.88;5.38;;;12.40;99.90;;;13.36;82.21;98214.78;10365967;28;20242;-64
2023/07/07 03:56:07;;;;;;;5.57;5.18;;;12.40;99.90;;;13.37;81.74;98224.28;10366243;28;20232;-65
2023/07/07 04:01:13;;;;;;;6.20;5.70;;;12.40;99.90;;;13.33;81.83;98214.63;10360809;28;20226;-65
2023/07/07 04:06:19;;;;;;;6.63;5.80;;;12.40;99.90;;;13.36;82.56;98219.94;10363424;28;20237;-65
2023/07/07 04:11:23;;;;;;;5.75;5.05;;;12.50;99.90;;;13.46;82.47;98222.19;10359598;28;20241;-65
2023/07/07 04:16:27;;;;;;;5.72;5.22;;;12.60;99.90;;;13.56;82.04;98233.78;10362488;28;20237;-65
2023/07/07 04:21:32;;;;;;;6.50;5.95;;;12.70;99.90;;;13.76;80.28;98242.53;10361469;28;20648;-65
2023/07/07 04:26:38;;;;;;;6.43;5.82;;;12.80;99.90;;;13.76;79.13;98239.94;10364440;28;20230;-65
2023/07/07 04:31:45;;;;;;;5.28;4.78;;;12.80;99.90;;;13.79;79.93;98244.38;10354322;28;20226;-65
2023/07/07 04:36:50;;;;;;;6.47;5.72;;;12.90;99.90;;;13.92;79.79;98250.19;10350251;28;20611;-64
2023/07/07 04:41:53;;;;;;;5.75;5.25;;;12.90;99.90;;;14.06;77.72;98250.91;10361600;28;20241;-65
2023/07/07 04:46:56;;;;;;;6.13;5.53;;;13.10;99.90;;;14.16;78.01;98247.09;10361562;28;20316;-65
2023/07/07 04:52:00;;;;;;;6.15;5.55;;;13.20;99.90;;;15.13;75.32;98247.41;10354992;28;20407;-64
2023/07/07 04:57:04;;;;;;;6.10;5.20;;;14.40;99.90;;;16.43;69.92;98247.00;10358999;28;20330;-65
2023/07/07 05:02:07;;;;;;;6.00;5.32;;;15.50;99.90;;;17.79;63.82;98251.28;10359717;28;20226;-65
2023/07/07 05:07:12;;;;;;;4.90;4.45;;;16.60;99.90;;;19.08;57.65;98256.38;10366607;28;20607;-65
2023/07/07 05:12:15;;;;;;;5.10;4.60;;;17.50;99.90;;;19.89;53.58;98256.97;10361440;28;20237;-65
2023/07/07 05:17:18;;;;;;;4.80;4.40;;;18.40;99.20;;;20.43;52.13;98252.31;10339780;28;20231;-65
2023/07/07 05:22:22;;;;;;;5.03;4.60;;;18.60;98.40;;;21.16;49.48;98241.84;10357552;28;20258;-65
2023/07/07 05:27:26;;;;;;;5.70;4.78;;;18.90;97.10;;;21.54;48.06;98253.06;10359503;28;20227;-65
2023/07/07 05:32:30;;;;;;;4.90;4.50;;;19.40;95.30;;;21.67;48.12;98258.53;10357465;28;20222;-64
2023/07/07 05:37:35;;;;;;;5.47;4.95;;;19.60;95.50;;;21.92;46.88;98255.56;10355289;28;20317;-66
2023/07/07 05:42:38;;;;;;;6.40;4.90;;;19.80;94.10;;;22.65;44.95;98244.63;10353343;28;20226;-66
2023/07/07 05:47:41;;;;;;;6.57;4.97;;;20.20;92.80;;;23.30;43.97;98251.69;10354571;28;20240;-66
2023/07/07 05:52:48;;;;;;;5.03;4.63;;;20.90;91.70;;;23.76;42.59;98253.13;10357667;28;20295;-66
2023/07/07 05:57:51;;;;;;;4.93;4.35;;;21.50;90.70;;;23.98;42.17;98253.34;10360473;28;20706;-66
2023/07/07 06:02:54;;;;;;;4.90;4.50;;;21.20;90.90;;;24.28;41.57;98258.88;10357725;28;20252;-64
2023/07/07 06:07:58;;;;;;;4.60;4.20;;;21.60;90.00;;;24.26;41.88;98249.25;10355423;28;20277;-64
2023/07/07 06:13:03;;;;;;;6.07;4.00;;;21.70;90.10;;;24.88;39.73;98246.28;10357989;28;20225;-66
2023/07/07 06:18:06;;;;;;;4.78;4.25;;;22.10;88.10;;;25.27;38.86;98239.56;10356824;28;20530;-67
2023/07/07 06:23:11;;;;;;;4.38;3.97;;;22.30;87.00;;;25.63;38.74;98249.28;10359048;28;20669;-67
2023/07/07 06:28:14;;;;;;;4.30;3.90;;;22.60;86.20;;;25.68;38.18;98246.69;10357741;28;20225;-67
2023/07/07 06:33:17;;;;;;;4.35;3.92;;;22.80;85.20;;;26.32;36.94;98234.59;10358494;28;20232;-67
2023/07/07 06:38:24;;;;;;;4.50;4.10;;;23.60;82.10;;;27.12;35.34;98244.16;10359492;28;20236;-67
2023/07/07 06:43:28;;;;;;;4.38;3.97;;;24.10;80.00;;;27.47;34.30;98247.56;10354852;28;20230;-68
2023/07/07 06:48:31;;;;;;;4.47;4.07;;;24.40;78.40;;;28.15;34.22;98242.84;10355557;28;20226;-67
2023/07/07 06:53:35;;;;;;;4.50;4.10;;;25.10;77.30;;;28.76;33.00;98252.91;10357191;28;20253;-67
2023/07/07 06:58:38;;;;;;;4.43;4.03;;;25.70;75.00;;;29.48;32.70;98254.78;10354075;28;20713;-69
2023/07/07 07:03:42;;;;;;;3.88;3.58;;;26.60;74.50;;;29.69;32.43;98248.38;10350410;28;20230;-66
2023/07/07 07:08:47;;;;;;;4.47;4.07;;;27.40;73.20;;;29.37;33.66;98247.00;10354672;28;20229;-66
2023/07/07 07:13:50;;;;;;;4.90;4.50;;;27.40;73.30;;;30.25;32.70;98238.81;10349867;28;20218;-67
2023/07/07 07:18:53;;;;;;;5.38;4.80;;;28.50;72.00;;;30.99;31.27;98248.13;10360582;28;20237;-67
2023/07/07 07:23:58;;;;;;;5.07;4.57;;;28.70;70.20;;;31.52;30.28;98245.38;10355323;28;20674;-69
2023/07/07 07:29:01;;;;;;;4.80;4.40;;;29.20;69.00;;;31.85;30.02;98236.72;10349878;28;20257;-66
2023/07/07 07:34:22;;;;;;;5.20;4.40;;;29.50;68.80;;;31.97;31.59;98242.66;10351590;28;20697;-68
2023/07/07 07:39:28;;;;;;;5.05;4.57;;;29.70;70.30;;;32.02;30.77;98240.75;10354991;28;20255;-67
2023/07/07 07:44:31;;;;;;;4.97;4.55;;;30.00;68.70;;;32.72;29.53;98239.06;10353298;28;20213;-67
2023/07/07 07:49:35;;;;;;;5.47;4.97;;;30.50;67.40;;;33.34;28.84;98240.97;10354700;28;20222;-67
2023/07/07 07:54:39;;;;;;;5.25;4.85;;;31.20;66.50;;;33.93;27.29;98234.81;10352705;28;20578;-66
2023/07/07 07:59:43;;;;;;;5.57;5.07;;;31.50;64.30;;;34.48;26.33;98233.06;10356913;28;20761;-67
2023/07/07 08:04:46;;;;;;;5.55;5.05;;;32.10;62.60;;;34.16;26.61;98243.88;10356645;28;20280;-69
2023/07/07 08:09:50;;;;;;;5.55;5.05;;;32.40;60.90;;;34.47;26.97;98252.56;10351935;28;20233;-67
2023/07/07 08:14:53;;;;;;;5.63;5.13;;;32.40;60.80;;;34.15;26.44;98256.28;10354992;28;20230;-67
2023/07/07 08:19:57;;;;;;;5.80;5.30;;;32.10;59.60;;;34.87;25.49;98253.91;10351209;28;20236;-67
2023/07/07 08:25:02;;;;;;;6.03;5.53;;;32.40;59.60;;;34.77;25.32;98255.16;10362502;28;20729;-67
2023/07/07 08:30:08;;;;;;;5.97;5.47;;;33.10;57.90;;;33.13;26.18;98255.66;10355608;28;20234;-68
2023/07/07 08:35:12;;;;;;;5.97;5.47;;;31.70;58.60;;;32.89;27.15;98248.38;10355512;28;20233;-66
2023/07/07 08:40:23;;;;;;;5.90;5.40;;;31.60;59.30;;;32.98;26.62;98248.13;10353160;28;20646;-68
2023/07/07 08:45:28;;;;;;;6.13;5.53;;;32.00;58.10;;;32.93;26.65;98256.16;10355871;28;20222;-66
2023/07/07 08:50:40;;;;;;;6.13;5.63;;;31.90;57.30;;;32.93;27.41;98250.00;10355821;28;20248;-67
2023/07/07 08:55:58;;;;;;;6.72;5.60;;;32.10;58.10;;;33.15;26.00;98250.34;10355883;28;20218;-66
2023/07/07 09:01:23;;;;;;;6.72;5.40;;;32.50;56.30;;;33.51;25.09;98264.34;10354332;28;20237;-66
2023/07/07 09:06:41;;;;;;;6.70;6.10;;;32.90;54.30;;;32.44;24.70;98261.81;10360096;28;20237;-67
2023/07/07 09:12:08;;;;;;;6.53;5.82;;;32.00;54.00;;;32.31;25.32;98261.28;10358322;28;20225;-66
2023/07/07 09:17:19;;;;;;;5.80;5.30;;;31.70;54.60;;;31.82;26.51;98259.69;10359066;28;20336;-67
2023/07/07 09:22:28;;;;;;;6.50;5.90;;;31.20;56.00;;;32.18;25.68;98250.09;10348582;28;20639;-67
2023/07/07 09:27:41;;;;;;;6.68;5.97;;;31.90;54.00;;;32.02;26.24;98254.00;10354127;28;20698;-66
2023/07/07 09:32:44;;;;;;;6.32;5.72;;;31.70;55.30;;;32.05;25.14;98246.88;10346688;28;20225;-66
2023/07/07 09:37:56;;;;;;;6.30;5.70;;;31.70;53.50;;;31.19;27.21;98250.38;10359361;28;20687;-66
2023/07/07 09:43:14;;;;;;;7.05;6.35;;;30.60;56.30;;;30.80;26.78;98241.47;10347381;28;20233;-66
2023/07/07 09:48:25;;;;;;;6.68;6.00;;;30.30;55.30;;;31.18;26.53;98238.09;10359183;28;20723;-66
2023/07/07 09:53:33;;;;;;;6.32;5.82;;;30.80;55.00;;;31.34;26.56;98231.59;10351031;28;20229;-67
2023/07/07 09:58:57;;;;;;;6.30;5.72;;;30.90;55.10;;;31.64;26.10;98229.25;10354818;28;20745;-65
2023/07/07 10:04:01;;;;;;;7.15;6.45;;;31.30;54.50;;;31.72;25.71;98232.59;10358104;28;20640;-65
2023/07/07 10:09:10;;;;;;;8.55;6.78;;;31.20;54.40;;;32.11;25.30;98216.75;10357116;28;20398;-65
2023/07/07 10:14:17;;;;;;;6.70;6.00;;;31.70;53.90;;;31.56;26.70;98225.88;10349828;28;21449;-66
2023/07/07 10:19:20;;;;;;;6.88;6.28;;;31.10;54.90;;;31.44;26.56;98224.38;10353929;28;20331;-65
2023/07/07 10:24:23;;;;;;;8.30;7.22;;;30.80;55.20;;;31.13;26.38;98221.47;10355695;28;20662;-65
2023/07/07 10:29:39;;;;;;;7.10;6.40;;;30.60;54.60;;;31.47;25.89;98223.44;10348218;28;20225;-65
2023/07/07 10:34:47;;;;;;;8.02;7.32;;;31.10;53.80;;;31.06;26.44;98225.13;10358151;28;20225;-65
2023/07/07 10:39:52;;;;;;;8.75;7.68;;;30.70;54.30;;;30.69;26.92;98217.84;10356461;28;20251;-64
2023/07/07 10:44:59;;;;;;;8.10;7.30;;;30.20;54.70;;;30.58;25.72;98225.09;10354737;28;20357;-65
2023/07/07 10:50:05;;;;;;;9.05;8.20;;;30.20;53.70;;;30.03;26.32;98230.34;10343906;28;20229;-67
2023/07/07 10:55:19;;;;;;;10.00;9.00;;;29.50;54.30;;;30.03;25.61;98211.00;10354420;28;20225;-65
2023/07/07 11:00:59;;;;;;;9.70;8.70;;;29.60;53.40;;;30.38;26.21;98199.91;10351148;28;20234;-65
2023/07/07 11:06:16;;;;;;;9.50;8.57;;;30.10;53.50;;;30.67;25.13;98203.81;10356642;28;20745;-65
2023/07/07 11:11:28;;;;;;;10.02;9.02;;;30.30;52.60;;;30.97;25.03;98197.13;10339803;28;20294;-65
2023/07/07 11:16:44;;;;;;;10.45;9.45;;;30.60;52.30;;;31.20;25.02;98199.31;10349757;28;20733;-65
2023/07/07 11:22:00;;;;;;;10.80;9.80;;;30.70;52.10;;;31.32;23.93;98201.69;10347546;28;20253;-65
2023/07/07 11:27:30;;;;;;;10.98;9.90;;;30.80;50.90;;;31.36;22.76;98206.06;10347743;28;20765;-65
2023/07/07 11:32:43;;;;;;;12.38;11.07;;;30.90;49.10;;;31.28;23.55;98201.78;10328887;28;20335;-65
2023/07/07 11:38:06;;;;;;;9.80;8.90;;;30.70;50.10;;;30.90;24.31;98185.78;10337562;28;20230;-65
2023/07/07 11:43:31;;;;;;;9.95;9.05;;;30.40;51.30;;;31.04;24.03;98192.59;10343204;28;20716;-65
2023/07/07 11:48:47;;;;;;;9.95;8.95;;;30.60;51.10;;;31.07;23.85;98193.38;10343720;28;20230;-65
2023/07/07 11:54:41;;;;;;;10.25;9.25;;;30.50;51.30;;;30.89;24.04;98186.72;10353456;28;20221;-65
2023/07/07 12:00:04;;;;;;;10.43;8.88;;;30.30;51.30;;;30.97;23.49;98187.44;10332521;28;20226;-65
2023/07/07 12:05:14;;;;;;;11.15;9.98;;;30.30;50.10;;;30.68;22.79;98184.47;10335570;28;20241;-64
2023/07/07 12:10:20;;;;;;;10.90;9.80;;;30.00;48.80;;;30.53;23.47;98175.03;10358743;28;20225;-65
2023/07/07 12:15:28;;;;;;;10.82;9.73;;;29.90;50.10;;;30.65;24.17;98180.09;10360076;28;20233;-65
2023/07/07 12:20:40;;;;;;;10.23;9.23;;;29.90;50.90;;;30.49;25.35;98168.94;10348998;28;20234;-65
2023/07/07 12:25:43;;;;;;;10.90;9.90;;;29.90;52.40;;;30.85;23.81;98171.84;10357922;28;20229;-65
2023/07/07 12:30:48;;;;;;;10.65;9.65;;;30.30;50.30;;;30.53;23.83;98165.38;10353897;28;20230;-65
2023/07/07 12:35:58;;;;;;;11.07;10.07;;;30.00;50.00;;;30.42;24.72;98148.84;10363831;28;20231;-65
2023/07/07 12:41:09;;;;;;;11.43;10.13;;;29.90;51.10;;;30.35;24.68;98148.97;10355706;28;20315;-65
2023/07/07 12:46:20;;;;;;;11.10;10.02;;;29.80;51.60;;;30.55;24.33;98161.81;10357514;28;20650;-64
2023/07/07 12:51:28;;;;;;;11.15;10.02;;;30.10;51.00;;;30.37;25.32;98141.91;10359126;28;20230;-65
2023/07/07 12:56:32;;;;;;;11.15;10.02;;;29.80;51.70;;;30.93;24.42;98145.25;10360453;28;20756;-65
2023/07/07 13:01:38;;;;;;;11.60;10.50;;;30.20;51.40;;;31.07;23.13;98151.13;10361059;28;20260;-65
2023/07/07 13:07:01;;;;;;;12.32;11.13;;;30.30;49.60;;;31.18;22.42;98143.00;10351482;28;20297;-65
2023/07/07 13:12:43;;;;;;;10.82;9.77;;;30.30;48.90;;;31.03;22.95;98132.75;10359014;28;20804;-65
2023/07/07 13:17:47;;;;;;;12.05;10.80;;;30.20;49.20;;;30.89;23.19;98125.97;10359729;28;20224;-65
2023/07/07 13:22:56;;;;;;;11.68;10.57;;;30.10;49.40;;;30.90;23.62;98125.06;10350328;28;20246;-65
2023/07/07 13:28:00;;;;;;;9.75;8.80;;;30.10;50.10;;;31.21;23.72;98116.50;10361919;28;20700;-64
2023/07/07 13:33:08;;;;;;;9.45;8.20;;;30.30;50.30;;;31.34;23.08;98114.47;10351239;28;20320;-65
2023/07/07 13:38:17;;;;;;;10.02;9.02;;;30.60;49.90;;;31.36;23.16;98110.94;10357785;28;20244;-65
2023/07/07 13:43:28;;;;;;;9.35;8.40;;;30.70;49.90;;;31.09;23.77;98109.72;10361524;28;20256;-65
2023/07/07 13:48:33;;;;;;;9.93;8.30;;;30.50;50.00;;;30.92;23.36;98114.50;10356008;28;20228;-65
2023/07/07 13:53:39;;;;;;;8.98;8.07;;;30.20;49.80;;;30.78;23.98;98116.50;10359394;28;20808;-64
2023/07/07 13:58:45;;;;;;;9.82;8.63;;;29.90;50.70;;;30.91;23.34;98102.19;10357714;28;20230;-65
2023/07/07 14:03:50;;;;;;;9.40;8.05;;;30.10;49.80;;;30.66;23.89;98104.41;10350350;28;20237;-64
2023/07/07 14:08:55;;;;;;;10.18;8.30;;;30.00;49.80;;;30.42;24.51;98098.72;10351002;28;20233;-65
2023/07/07 14:14:00;;;;;;;9.02;8.20;;;29.70;50.60;;;30.63;24.61;98086.00;10355536;28;20300;-65
2023/07/07 14:19:12;;;;;;;9.60;8.63;;;29.70;51.30;;;31.02;24.33;98084.34;10346379;28;20230;-65
2023/07/07 14:24:26;;;;;;;8.50;7.53;;;30.30;51.10;;;30.93;24.18;98079.25;10354592;28;20238;-65
2023/07/07 14:29:36;;;;;;;8.40;7.60;;;30.20;50.70;;;30.97;24.23;98067.75;10346357;28;20226;-64
2023/07/07 14:34:48;;;;;;;9.52;8.27;;;30.10;50.80;;;31.11;23.21;98070.09;10346292;28;20233;-66
2023/07/07 14:39:54;;;;;;;8.98;8.18;;;30.50;49.10;;;31.05;23.36;98062.28;10348564;28;20606;-67
2023/07/07 14:44:57;;;;;;;8.75;7.88;;;30.40;49.40;;;30.72;23.33;98064.69;10354046;28;20312;-65
2023/07/07 14:50:04;;;;;;;8.30;7.50;;;29.90;49.30;;;30.64;23.71;98066.63;10357460;28;20647;-65
2023/07/07 14:55:15;;;;;;;8.98;8.05;;;29.80;49.90;;;30.53;23.06;98054.53;10314503;28;20218;-64
2023/07/07 15:00:38;;;;;;;8.80;7.90;;;29.80;49.00;;;30.69;23.66;98059.50;10319729;28;20234;-65
2023/07/07 15:05:44;;;;;;;8.95;7.93;;;29.90;49.70;;;30.61;23.78;98061.41;10307439;28;20231;-65
2023/07/07 15:10:48;;;;;;;7.97;7.18;;;29.80;50.00;;;30.79;23.90;98049.59;10311287;28;20230;-65
2023/07/07 15:15:51;;;;;;;8.82;7.68;;;29.90;50.20;;;31.01;23.33;98047.41;10310712;28;20235;-65
2023/07/07 15:20:55;;;;;;;8.05;7.25;;;30.20;49.40;;;30.92;23.42;98049.34;10314191;28;20245;-65
2023/07/07 15:25:59;;;;;;;9.98;8.02;;;30.10;49.30;;;30.99;23.45;98031.59;10310910;28;20718;-66
2023/07/07 15:31:06;;;;;;;8.40;7.32;;;30.10;49.50;;;30.88;23.58;98029.19;10318174;28;20231;-66
2023/07/07 15:36:10;;;;;;;8.15;7.38;;;30.00;49.60;;;31.04;23.47;98026.22;10316070;28;20330;-66
2023/07/07 15:41:18;;;;;;;8.18;7.32;;;30.00;50.00;;;31.07;23.27;98023.50;10311921;28;20226;-66
2023/07/07 15:46:27;;;;;;;8.20;7.35;;;30.20;49.30;;;31.15;23.06;98026.84;10317502;28;20234;-65
2023/07/07 15:51:34;;;;;;;10.35;7.82;;;30.20;49.30;;;31.12;23.36;98024.28;10321847;28;20234;-64
2023/07/07 15:56:41;;;;;;;8.57;7.57;;;30.30;49.40;;;31.23;22.61;98024.91;10322809;28;20222;-66
2023/07/07 16:01:45;;;;;;;8.38;7.47;;;30.50;48.60;;;30.89;22.60;98012.44;10322968;28;20610;-64
2023/07/07 16:06:50;;;;;;;8.63;7.40;;;30.20;48.10;;;30.89;22.93;98020.38;10317429;28;20738;-65
2023/07/07 16:11:55;;;;;;;8.18;7.28;;;30.00;48.80;;;30.74;23.00;98018.91;10317579;28;20238;-65
2023/07/07 16:16:58;;;;;;;8.00;7.20;;;29.80;48.90;;;30.51;24.71;98007.97;10317127;28;20687;-64
2023/07/07 16:22:01;;;;;;;7.95;7.13;;;29.50;50.80;;;30.40;24.55;98016.09;10311801;28;20337;-64
2023/07/07 16:27:15;;;;;;;7.85;7.05;;;29.40;50.60;;;30.37;23.83;98018.78;10352402;28;20313;-64
2023/07/07 16:32:18;;;;;;;7.80;7.10;;;29.40;50.10;;;30.60;23.87;98017.47;10359076;28;20635;-64
2023/07/07 16:37:21;;;;;;;8.88;7.95;;;29.70;49.80;;;30.50;23.94;98020.28;10356674;28;20240;-64
2023/07/07 16:42:26;;;;;;;11.77;7.50;;;29.80;49.20;;;30.56;23.70;98015.75;10352385;28;20230;-65
2023/07/07 16:47:29;;;;;;;8.75;7.90;;;29.80;49.40;;;30.51;24.00;98005.31;10359859;28;20237;-64
2023/07/07 16:52:32;;;;;;;8.00;7.10;;;29.70;49.90;;;30.55;23.83;98011.41;10346192;28;20221;-64
2023/07/07 16:57:37;;;;;;;7.97;7.18;;;29.80;49.40;;;30.42;23.77;98010.75;10343399;28;20786;-67
2023/07/07 17:02:40;;;;;;;10.13;7.82;;;29.60;49.50;;;30.22;24.36;98016.47;10354539;28;20234;-66
2023/07/07 17:07:43;;;;;;;8.90;7.45;;;29.40;50.20;;;30.47;24.04;98009.78;10357426;28;20229;-64
2023/07/07 17:12:48;;;;;;;7.75;7.05;;;29.70;50.00;;;30.09;24.51;98006.09;10354777;28;20267;-64
2023/07/07 17:17:51;;;;;;;7.80;7.00;;;29.30;50.40;;;30.14;25.12;97999.88;10362204;28;20241;-65
2023/07/07 17:22:55;;;;;;;8.40;7.53;;;29.20;51.00;;;29.88;25.09;98006.50;10353111;28;21644;-65
2023/07/07 17:27:59;;;;;;;7.88;7.18;;;29.00;51.30;;;29.87;24.80;98004.75;10352520;28;20605;-65
2023/07/07 17:33:02;;;;;;;9.48;7.50;;;29.00;51.10;;;30.00;25.04;98011.53;10352523;28;20617;-65
2023/07/07 17:38:09;;;;;;;7.72;7.03;;;29.10;50.70;;;29.92;24.56;98002.91;10357169;28;20257;-65
2023/07/07 17:43:16;;;;;;;8.02;7.22;;;29.20;50.60;;;30.02;24.37;98004.47;10350865;28;20242;-65
2023/07/07 17:48:19;;;;;;;9.77;7.45;;;29.30;49.80;;;29.97;24.47;97998.41;10344985;28;20555;-64
2023/07/07 17:53:22;;;;;;;8.55;7.30;;;29.20;49.90;;;29.69;25.12;97999.81;10354023;28;20249;-65
2023/07/07 17:58:28;;;;;;;8.32;7.28;;;28.90;50.80;;;29.70;25.36;97996.25;10358426;28;20232;-65
2023/07/07 18:03:31;;;;;;;8.30;7.38;;;28.80;51.10;;;29.72;25.52;97999.75;10352682;28;20229;-65
2023/07/07 18:08:34;;;;;;;8.48;7.68;;;28.70;51.50;;;29.55;25.83;97998.22;10343511;28;20308;-64
2023/07/07 18:13:38;;;;;;;8.07;7.28;;;28.60;52.10;;;29.40;26.04;97998.50;10352871;28;20222;-65
2023/07/07 18:18:42;;;;;;;9.43;8.02;;;28.50;52.50;;;29.28;26.59;98003.97;10357707;28;20595;-65
2023/07/07 18:24:06;;;;;;;8.52;6.95;;;28.30;53.30;;;29.08;27.26;97997.22;10349494;28;20716;-65
2023/07/07 18:29:18;;;;;;;8.45;7.25;;;28.20;53.80;;;28.91;28.25;97999.19;10348174;28;20241;-65
2023/07/07 18:34:21;;;;;;;8.82;7.30;;;27.90;54.70;;;28.84;28.54;97987.88;10350370;28;20337;-65
2023/07/07 18:39:27;;;;;;;8.18;7.05;;;27.80;54.90;;;28.60;29.68;98001.38;10369610;22;20845;-63
2023/07/07 18:44:31;;;;;;;8.80;6.82;;;27.60;56.70;;;28.39;28.87;97999.84;10310697;28;20231;-64
2023/07/07 18:49:35;;;;;;;7.28;6.25;;;27.30;55.70;;;28.24;29.32;98000.88;10308670;28;20226;-66
2023/07/07 18:54:38;;;;;;;9.48;8.00;;;27.20;55.90;;;27.94;29.94;97999.47;10294331;28;20231;-66
2023/07/07 18:59:42;;;;;;;7.75;6.93;;;26.90;56.80;;;27.64;30.56;98001.44;10311927;28;20230;-66
2023/07/07 19:04:45;;;;;;;8.35;7.38;;;26.60;57.40;;;27.39;30.61;97993.78;10315076;28;20238;-66
2023/07/07 19:09:52;;;;;;;8.30;7.03;;;26.40;57.40;;;27.19;30.93;98011.44;10311572;28;20234;-66
2023/07/07 19:14:56;;;;;;;7.43;6.60;;;26.20;57.70;;;27.02;32.02;97998.41;10306509;28;20241;-64
2023/07/07 19:19:59;;;;;;;9.00;7.38;;;25.90;59.30;;;26.80;33.29;98007.28;10306074;28;20230;-64
2023/07/07 19:25:03;;;;;;;8.20;7.20;;;25.70;61.30;;;26.42;34.96;98014.41;10294045;28;20610;-66
2023/07/07 19:30:14;;;;;;;9.07;7.30;;;25.30;63.90;;;26.15;34.72;98014.47;10300134;28;20680;-65
2023/07/07 19:35:17;;;;;;;10.65;9.55;;;25.00;63.00;;;25.92;35.49;98014.50;10309600;28;20219;-66
2023/07/07 19:40:30;;;;;;;9.95;8.95;;;24.80;64.60;;;25.67;36.65;98025.00;10290414;28;20253;-65
2023/07/07 19:45:34;;;;;;;9.05;7.85;;;24.50;66.60;;;25.31;37.81;98025.84;10295457;28;20231;-64
2023/07/07 19:50:39;;;;;;;8.38;7.22;;;24.20;68.20;;;25.07;38.42;98017.06;10304135;28;20235;-66
2023/07/07 19:55:43;;;;;;;8.02;7.22;;;24.00;69.70;;;24.82;38.89;98025.72;10291119;28;20230;-65
2023/07/07 20:00:48;;;;;;;7.80;7.00;;;23.70;71.20;;;24.57;39.99;98025.63;10312397;28;20258;-66
2023/07/07 20:05:51;;;;;;;7.60;6.80;;;23.40;72.00;;;24.35;40.14;98039.41;10314750;28;20677;-67
2023/07/07 20:10:57;;;;;;;8.27;7.47;;;23.20;72.30;;;24.08;41.71;98035.78;10310706;28;20247;-65
2023/07/07 20:16:02;;;;;;;9.82;7.85;;;23.00;73.70;;;23.85;41.76;98040.00;10314803;28;20254;-66
2023/07/07 20:21:08;;;;;;;8.30;7.40;;;22.80;73.80;;;23.62;42.43;98035.44;10297839;28;20239;-66
2023/07/07 20:26:12;;;;;;;10.63;8.13;;;22.60;75.10;;;23.44;42.32;98046.59;10313781;28;20705;-65
2023/07/07 20:31:18;;;;;;;8.57;7.68;;;22.40;74.90;;;23.33;42.53;98038.66;10313688;28;20825;-66
2023/07/07 20:36:23;;;;;;;8.75;7.70;;;22.30;75.40;;;23.13;42.54;98053.25;10311759;28;20238;-65
2023/07/07 20:41:26;;;;;;;8.82;7.78;;;22.10;75.40;;;23.00;42.46;98053.97;10311439;28;20231;-66
2023/07/07 20:46:35;;;;;;;9.75;8.23;;;21.90;76.00;;;22.82;42.83;98050.25;10314839;28;20230;-66
2023/07/07 20:51:38;;;;;;;8.88;7.40;;;21.80;75.50;;;22.72;42.79;98048.44;10313506;28;20569;-66
2023/07/07 20:56:41;;;;;;;8.20;7.40;;;21.70;75.80;;;22.61;43.00;98044.81;10311924;28;20230;-66
2023/07/07 21:01:46;;;;;;;8.23;7.43;;;21.60;76.30;;;22.45;42.85;98054.16;10312042;28;20231;-66
2023/07/07 21:06:50;;;;;;;8.38;7.05;;;21.50;76.10;;;22.39;43.71;98060.16;10315152;28;20234;-65
2023/07/07 21:11:53;;;;;;;8.38;7.53;;;21.40;77.00;;;22.29;43.32;98068.72;10316034;28;20662;-65